Airfield :
LOGIN :

Register | Disclaimer

   EN    FR    IT 

 










Legend :    VFR   Marginal VFR   IFR   Intensive IFR   Very Intensive IFR
Visi :
Ceiling :
>= 8 km
>= 3000ft
5 to 8 km
1000 to 3000 ft
1500m to 5 km
500 to 1000 ft
800 to 1500m
200 to 500 ft
< 800m
< 200 ft
Symbols :   Thunderstorms  Fog  Heavy snow  Heavy precipitations  Wind > 20 kt
SIGMETs :     Misc.  Thunderstorms  Icing  Turbulence  Mountain Waves  Volcanic Ashes







- Airport Elevation : 479 ft
- IATA code : DOL
- Download approach charts


LFRG - Deauville

CURRENT METAR :
  • 201800Z AUTO 10008KT CAVOK 19/01 Q1018 NOSIG

EXPIRED METARs :
  • 201730Z AUTO 10008KT 070V130 CAVOK 20/01 Q1018 NOSIG
  • 201700Z AUTO 10009KT 070V140 CAVOK 21/M00 Q1018 NOSIG
  • 201630Z AUTO 10010KT 060V130 CAVOK 22/00 Q1019 NOSIG
  • 201600Z AUTO 09011KT 060V150 CAVOK 22/M00 Q1019 NOSIG
  • 201530Z AUTO 10012KT 050V150 CAVOK 22/00 Q1019 NOSIG

TAF TAF LFRG
Valid from the 20 at 15:00 until the 21 at 00:00 UTC


201400Z 2015/2024 10010KT CAVOK
ATIS : +33 2 31 65 65 36
No reported NOTAMs for that airfield.



MET'MAP, your aeronautical weather chart ! - Copyright ORBIFLY December 2007 - Disclaimer

ORBIFLY MET'MAP TEAM :

Programming & Development : Alexandra Zaïnal
Concept & Development : Baudouin d'Aumeries
Co-Development & Prog : Marc-Olivier Méhu
Technical & hardware support : Manuel Goepfert

Contact : metmap@orbifly.com




SOURCES & CREDITS :

   NOAA